Medford, OR (97501)

23:59 PDT le 30 septembre 2016 (GMT -0700)
Southwest Medford (CW2551) | | Change Station

Alt. 1472 ft 42.31 °N, 122.90 °W | Updated 7 seconds ago

Clear
Ciel dégagé
44.9 ° F
Paraît 45 ° F
N
0.0
Vent Variable Vent de SSO
Gusts 0.0 mph

Aujourd'hui
Haut(e) -- | Bas -- ° F
--% Risque de précip.
Hier
Haut(e) -- | Bas -- ° F
Precip. -- pouce
Pression 30.06 pouce
Visibilité 10.0 Miles terrestres
Nuages Ciel dégagé
Refroidissement éolien 45 ° F
Point de rosée 38 ° F
Humidité 78%
Précipitations 0.00 pouce
Profondeur de la couche neigeuse Non disponible.
7:08 AM 6:53 PM
Nouvelle lune, 0% visible
METAR KMFR 010653Z AUTO 07005KT 10SM CLR 10/04 A3006 RMK AO2 SLP177 T01000044
Pression 30.06 pouce
Visibilité 10.0 Miles terrestres
Nuages Ciel dégagé
Refroidissement éolien 45 ° F
Point de rosée 38 ° F
Humidité 78%
Précipitations 0.00 pouce
Profondeur de la couche neigeuse Non disponible.
7:08 AM 6:53 PM
Nouvelle lune, 0% visible
METAR KMFR 010653Z AUTO 07005KT 10SM CLR 10/04 A3006 RMK AO2 SLP177 T01000044

10-Day Weather Forecast

Almanac

Astronomie

Sep. 30, 2016 Lever Coucher
Temps réel
Crépuscule civil
Crépuscule nautique
Crépuscule astronomique
Lune
Durée de lumière visible
Longueur du jour
Tomorrow will be .
, % of the Moon is Illuminated

Extrêmes aujourd'hui

State Highs State Lows

Community

WunderPhotos

Upload Photos

1,942,898 Photos téléchargées !

WunderBlog® & News

Nearby

Qualité de l'air

  Qualité de l'air Indice de la qualité de l'air Polluant
Not available.

Épaisseur de neige

Station Depth Altitude

Activité sismique

Ville Distance Mag. Time & Date
Minimum magnitude displayed is 2.5.

Températures des eaux côtières

Lieu Température

Stations

Stations météo à proximité

Emplacement de la station Température Refroidissement éolien Point de rosée Humidité Vent Precip. Alt. Mise à jour Type
                   

Watches & Warnings

There are currently no watches in effect.